sensor_id;sensor_type;location;lat;lon;timestamp;P1;durP1;ratioP1;P2;durP2;ratioP2
4636;SDS011;2331;48.806;9.140;2023-11-19T00:00:47;2.75;;;1.75;;
4636;SDS011;2331;48.806;9.140;2023-11-19T00:03:13;2.35;;;1.58;;
4636;SDS011;2331;48.806;9.140;2023-11-19T00:05:39;1.40;;;1.30;;
4636;SDS011;2331;48.806;9.140;2023-11-19T00:08:06;2.58;;;1.70;;
4636;SDS011;2331;48.806;9.140;2023-11-19T00:10:34;2.35;;;1.63;;
4636;SDS011;2331;48.806;9.140;2023-11-19T00:13:00;2.90;;;2.00;;
4636;SDS011;2331;48.806;9.140;2023-11-19T00:15:29;7.30;;;3.35;;
4636;SDS011;2331;48.806;9.140;2023-11-19T00:17:57;2.00;;;1.42;;
4636;SDS011;2331;48.806;9.140;2023-11-19T00:20:24;2.47;;;1.80;;
4636;SDS011;2331;48.806;9.140;2023-11-19T00:22:50;4.15;;;2.17;;
4636;SDS011;2331;48.806;9.140;2023-11-19T00:25:17;5.65;;;2.90;;
4636;SDS011;2331;48.806;9.140;2023-11-19T00:27:44;4.50;;;2.40;;
4636;SDS011;2331;48.806;9.140;2023-11-19T00:30:11;2.60;;;1.60;;
4636;SDS011;2331;48.806;9.140;2023-11-19T00:32:39;3.60;;;2.45;;
4636;SDS011;2331;48.806;9.140;2023-11-19T00:35:07;2.15;;;1.50;;
4636;SDS011;2331;48.806;9.140;2023-11-19T00:37:35;3.33;;;2.15;;
4636;SDS011;2331;48.806;9.140;2023-11-19T00:40:01;1.88;;;1.05;;
4636;SDS011;2331;48.806;9.140;2023-11-19T00:42:30;2.35;;;0.90;;
4636;SDS011;2331;48.806;9.140;2023-11-19T00:44:57;2.08;;;1.08;;
4636;SDS011;2331;48.806;9.140;2023-11-19T00:47:24;1.75;;;0.75;;
4636;SDS011;2331;48.806;9.140;2023-11-19T00:49:50;1.75;;;0.80;;
4636;SDS011;2331;48.806;9.140;2023-11-19T00:52:18;1.55;;;0.90;;
4636;SDS011;2331;48.806;9.140;2023-11-19T00:54:47;0.90;;;0.80;;
4636;SDS011;2331;48.806;9.140;2023-11-19T00:57:13;1.90;;;0.80;;
4636;SDS011;2331;48.806;9.140;2023-11-19T00:59:41;1.60;;;1.00;;
4636;SDS011;2331;48.806;9.140;2023-11-19T01:02:08;1.00;;;0.90;;
4636;SDS011;2331;48.806;9.140;2023-11-19T01:04:34;1.33;;;0.90;;
4636;SDS011;2331;48.806;9.140;2023-11-19T01:07:01;1.10;;;0.70;;
4636;SDS011;2331;48.806;9.140;2023-11-19T01:09:31;1.10;;;0.80;;
4636;SDS011;2331;48.806;9.140;2023-11-19T01:11:59;1.30;;;0.80;;
4636;SDS011;2331;48.806;9.140;2023-11-19T01:14:26;3.28;;;0.95;;
4636;SDS011;2331;48.806;9.140;2023-11-19T01:16:53;1.10;;;0.80;;
4636;SDS011;2331;48.806;9.140;2023-11-19T01:19:20;1.00;;;0.70;;
4636;SDS011;2331;48.806;9.140;2023-11-19T01:21:48;1.02;;;0.57;;
4636;SDS011;2331;48.806;9.140;2023-11-19T01:24:15;1.23;;;0.70;;
4636;SDS011;2331;48.806;9.140;2023-11-19T01:26:43;1.17;;;0.70;;
4636;SDS011;2331;48.806;9.140;2023-11-19T01:29:10;0.95;;;0.60;;
4636;SDS011;2331;48.806;9.140;2023-11-19T01:31:38;0.90;;;0.65;;
4636;SDS011;2331;48.806;9.140;2023-11-19T01:34:05;1.75;;;0.70;;
4636;SDS011;2331;48.806;9.140;2023-11-19T01:36:32;1.40;;;0.60;;
4636;SDS011;2331;48.806;9.140;2023-11-19T01:38:58;1.00;;;0.50;;
4636;SDS011;2331;48.806;9.140;2023-11-19T01:41:25;1.23;;;0.77;;
4636;SDS011;2331;48.806;9.140;2023-11-19T01:43:54;0.80;;;0.70;;
4636;SDS011;2331;48.806;9.140;2023-11-19T01:46:21;0.80;;;0.52;;
4636;SDS011;2331;48.806;9.140;2023-11-19T01:48:47;0.90;;;0.60;;
4636;SDS011;2331;48.806;9.140;2023-11-19T01:51:14;0.70;;;0.50;;
4636;SDS011;2331;48.806;9.140;2023-11-19T01:53:42;0.70;;;0.50;;
4636;SDS011;2331;48.806;9.140;2023-11-19T01:56:11;0.70;;;0.50;;
4636;SDS011;2331;48.806;9.140;2023-11-19T01:58:40;0.75;;;0.50;;
4636;SDS011;2331;48.806;9.140;2023-11-19T02:01:10;0.95;;;0.60;;
4636;SDS011;2331;48.806;9.140;2023-11-19T02:03:38;2.35;;;0.50;;
4636;SDS011;2331;48.806;9.140;2023-11-19T02:06:06;1.27;;;0.60;;
4636;SDS011;2331;48.806;9.140;2023-11-19T02:08:35;1.58;;;0.63;;
4636;SDS011;2331;48.806;9.140;2023-11-19T02:11:02;1.15;;;0.50;;
4636;SDS011;2331;48.806;9.140;2023-11-19T02:13:29;1.10;;;0.60;;
4636;SDS011;2331;48.806;9.140;2023-11-19T02:15:55;1.20;;;0.47;;
4636;SDS011;2331;48.806;9.140;2023-11-19T02:18:24;1.35;;;0.65;;
4636;SDS011;2331;48.806;9.140;2023-11-19T02:20:53;0.90;;;0.50;;
4636;SDS011;2331;48.806;9.140;2023-11-19T02:23:20;0.98;;;0.50;;
4636;SDS011;2331;48.806;9.140;2023-11-19T02:25:51;0.75;;;0.57;;
4636;SDS011;2331;48.806;9.140;2023-11-19T02:28:27;0.85;;;0.50;;
4636;SDS011;2331;48.806;9.140;2023-11-19T02:30:54;0.85;;;0.52;;
4636;SDS011;2331;48.806;9.140;2023-11-19T02:33:20;0.70;;;0.50;;
4636;SDS011;2331;48.806;9.140;2023-11-19T02:35:48;1.88;;;0.50;;
4636;SDS011;2331;48.806;9.140;2023-11-19T02:38:14;1.55;;;0.60;;
4636;SDS011;2331;48.806;9.140;2023-11-19T02:40:41;1.00;;;0.60;;
4636;SDS011;2331;48.806;9.140;2023-11-19T02:43:08;2.65;;;0.50;;
4636;SDS011;2331;48.806;9.140;2023-11-19T02:45:36;2.45;;;0.60;;
4636;SDS011;2331;48.806;9.140;2023-11-19T02:48:03;1.58;;;0.70;;
4636;SDS011;2331;48.806;9.140;2023-11-19T02:50:31;0.77;;;0.55;;
4636;SDS011;2331;48.806;9.140;2023-11-19T02:52:58;0.80;;;0.50;;
4636;SDS011;2331;48.806;9.140;2023-11-19T02:55:26;0.85;;;0.60;;
4636;SDS011;2331;48.806;9.140;2023-11-19T02:57:55;0.85;;;0.60;;
4636;SDS011;2331;48.806;9.140;2023-11-19T03:00:24;0.70;;;0.40;;
4636;SDS011;2331;48.806;9.140;2023-11-19T03:02:58;0.95;;;0.50;;
4636;SDS011;2331;48.806;9.140;2023-11-19T03:05:30;0.70;;;0.55;;
4636;SDS011;2331;48.806;9.140;2023-11-19T03:07:57;2.97;;;0.70;;
4636;SDS011;2331;48.806;9.140;2023-11-19T03:10:24;1.35;;;0.80;;
4636;SDS011;2331;48.806;9.140;2023-11-19T03:12:51;0.80;;;0.60;;
4636;SDS011;2331;48.806;9.140;2023-11-19T03:15:17;1.65;;;0.60;;
4636;SDS011;2331;48.806;9.140;2023-11-19T03:17:46;1.92;;;0.77;;
4636;SDS011;2331;48.806;9.140;2023-11-19T03:20:14;0.95;;;0.50;;
4636;SDS011;2331;48.806;9.140;2023-11-19T03:22:42;1.17;;;0.50;;
4636;SDS011;2331;48.806;9.140;2023-11-19T03:25:09;0.80;;;0.50;;
4636;SDS011;2331;48.806;9.140;2023-11-19T03:27:36;0.65;;;0.50;;
4636;SDS011;2331;48.806;9.140;2023-11-19T03:30:04;0.80;;;0.50;;
4636;SDS011;2331;48.806;9.140;2023-11-19T03:32:31;1.40;;;0.73;;
4636;SDS011;2331;48.806;9.140;2023-11-19T03:35:00;0.77;;;0.45;;
4636;SDS011;2331;48.806;9.140;2023-11-19T03:37:30;0.82;;;0.50;;
4636;SDS011;2331;48.806;9.140;2023-11-19T03:39:57;0.80;;;0.50;;
4636;SDS011;2331;48.806;9.140;2023-11-19T03:42:24;0.77;;;0.40;;
4636;SDS011;2331;48.806;9.140;2023-11-19T03:44:52;1.00;;;0.40;;
4636;SDS011;2331;48.806;9.140;2023-11-19T03:47:19;0.85;;;0.50;;
4636;SDS011;2331;48.806;9.140;2023-11-19T03:49:47;0.60;;;0.40;;
4636;SDS011;2331;48.806;9.140;2023-11-19T03:52:14;0.90;;;0.45;;
4636;SDS011;2331;48.806;9.140;2023-11-19T03:54:42;2.80;;;0.50;;
4636;SDS011;2331;48.806;9.140;2023-11-19T03:57:10;1.17;;;0.50;;
4636;SDS011;2331;48.806;9.140;2023-11-19T03:59:37;1.15;;;0.40;;
4636;SDS011;2331;48.806;9.140;2023-11-19T04:02:04;0.60;;;0.40;;
4636;SDS011;2331;48.806;9.140;2023-11-19T04:04:31;0.60;;;0.40;;
4636;SDS011;2331;48.806;9.140;2023-11-19T04:06:58;0.90;;;0.40;;
4636;SDS011;2331;48.806;9.140;2023-11-19T04:09:25;1.45;;;0.50;;
4636;SDS011;2331;48.806;9.140;2023-11-19T04:11:53;1.63;;;0.50;;
4636;SDS011;2331;48.806;9.140;2023-11-19T04:14:20;0.70;;;0.40;;
4636;SDS011;2331;48.806;9.140;2023-11-19T04:16:47;2.15;;;0.57;;
4636;SDS011;2331;48.806;9.140;2023-11-19T04:19:13;0.60;;;0.40;;
4636;SDS011;2331;48.806;9.140;2023-11-19T04:21:40;1.23;;;0.40;;
4636;SDS011;2331;48.806;9.140;2023-11-19T04:24:07;0.70;;;0.40;;
4636;SDS011;2331;48.806;9.140;2023-11-19T04:26:39;0.80;;;0.50;;
4636;SDS011;2331;48.806;9.140;2023-11-19T04:29:08;1.35;;;0.50;;
4636;SDS011;2331;48.806;9.140;2023-11-19T04:31:36;1.83;;;0.45;;
4636;SDS011;2331;48.806;9.140;2023-11-19T04:34:03;1.00;;;0.50;;
4636;SDS011;2331;48.806;9.140;2023-11-19T04:36:29;0.60;;;0.40;;
4636;SDS011;2331;48.806;9.140;2023-11-19T04:38:56;0.70;;;0.40;;
4636;SDS011;2331;48.806;9.140;2023-11-19T04:41:24;0.70;;;0.40;;
4636;SDS011;2331;48.806;9.140;2023-11-19T04:43:52;0.70;;;0.50;;
4636;SDS011;2331;48.806;9.140;2023-11-19T04:46:20;0.60;;;0.40;;
4636;SDS011;2331;48.806;9.140;2023-11-19T04:48:48;1.23;;;0.57;;
4636;SDS011;2331;48.806;9.140;2023-11-19T04:51:15;0.75;;;0.50;;
4636;SDS011;2331;48.806;9.140;2023-11-19T04:53:42;0.68;;;0.40;;
4636;SDS011;2331;48.806;9.140;2023-11-19T04:56:09;0.70;;;0.50;;
4636;SDS011;2331;48.806;9.140;2023-11-19T04:58:36;0.60;;;0.40;;
4636;SDS011;2331;48.806;9.140;2023-11-19T05:01:03;1.00;;;0.40;;
4636;SDS011;2331;48.806;9.140;2023-11-19T05:03:31;1.63;;;0.52;;
4636;SDS011;2331;48.806;9.140;2023-11-19T05:05:58;2.35;;;0.50;;
4636;SDS011;2331;48.806;9.140;2023-11-19T05:08:25;0.70;;;0.45;;
4636;SDS011;2331;48.806;9.140;2023-11-19T05:10:52;1.08;;;0.50;;
4636;SDS011;2331;48.806;9.140;2023-11-19T05:13:18;0.98;;;0.50;;
4636;SDS011;2331;48.806;9.140;2023-11-19T05:15:45;1.00;;;0.40;;
4636;SDS011;2331;48.806;9.140;2023-11-19T05:18:12;1.65;;;0.50;;
4636;SDS011;2331;48.806;9.140;2023-11-19T05:20:40;1.00;;;0.47;;
4636;SDS011;2331;48.806;9.140;2023-11-19T05:23:06;0.60;;;0.40;;
4636;SDS011;2331;48.806;9.140;2023-11-19T05:25:33;0.75;;;0.40;;
4636;SDS011;2331;48.806;9.140;2023-11-19T05:28:00;0.60;;;0.40;;
4636;SDS011;2331;48.806;9.140;2023-11-19T05:30:27;0.80;;;0.40;;
4636;SDS011;2331;48.806;9.140;2023-11-19T05:32:53;0.60;;;0.40;;
4636;SDS011;2331;48.806;9.140;2023-11-19T05:35:20;0.60;;;0.40;;
4636;SDS011;2331;48.806;9.140;2023-11-19T05:37:48;1.00;;;0.47;;
4636;SDS011;2331;48.806;9.140;2023-11-19T05:40:15;0.80;;;0.40;;
4636;SDS011;2331;48.806;9.140;2023-11-19T05:42:42;1.33;;;0.55;;
4636;SDS011;2331;48.806;9.140;2023-11-19T05:45:09;1.87;;;0.40;;
4636;SDS011;2331;48.806;9.140;2023-11-19T05:47:37;0.60;;;0.50;;
4636;SDS011;2331;48.806;9.140;2023-11-19T05:50:04;0.95;;;0.50;;
4636;SDS011;2331;48.806;9.140;2023-11-19T05:52:31;0.70;;;0.40;;
4636;SDS011;2331;48.806;9.140;2023-11-19T05:55:00;0.82;;;0.50;;
4636;SDS011;2331;48.806;9.140;2023-11-19T05:57:29;1.25;;;0.73;;
4636;SDS011;2331;48.806;9.140;2023-11-19T05:59:56;0.70;;;0.45;;
4636;SDS011;2331;48.806;9.140;2023-11-19T06:02:24;0.80;;;0.50;;
4636;SDS011;2331;48.806;9.140;2023-11-19T06:04:52;0.70;;;0.40;;
4636;SDS011;2331;48.806;9.140;2023-11-19T06:07:19;0.60;;;0.40;;
4636;SDS011;2331;48.806;9.140;2023-11-19T06:09:45;1.13;;;0.60;;
4636;SDS011;2331;48.806;9.140;2023-11-19T06:12:13;0.60;;;0.40;;
4636;SDS011;2331;48.806;9.140;2023-11-19T06:14:40;0.80;;;0.40;;
4636;SDS011;2331;48.806;9.140;2023-11-19T06:17:07;1.65;;;0.50;;
4636;SDS011;2331;48.806;9.140;2023-11-19T06:19:36;0.60;;;0.40;;
4636;SDS011;2331;48.806;9.140;2023-11-19T06:22:03;0.70;;;0.50;;
4636;SDS011;2331;48.806;9.140;2023-11-19T06:24:30;0.60;;;0.40;;
4636;SDS011;2331;48.806;9.140;2023-11-19T06:26:56;0.60;;;0.40;;
4636;SDS011;2331;48.806;9.140;2023-11-19T06:29:27;0.70;;;0.50;;
4636;SDS011;2331;48.806;9.140;2023-11-19T06:31:57;1.00;;;0.50;;
4636;SDS011;2331;48.806;9.140;2023-11-19T06:34:46;0.68;;;0.40;;
4636;SDS011;2331;48.806;9.140;2023-11-19T06:37:19;0.70;;;0.50;;
4636;SDS011;2331;48.806;9.140;2023-11-19T06:39:54;1.25;;;0.40;;
4636;SDS011;2331;48.806;9.140;2023-11-19T06:42:24;0.70;;;0.50;;
4636;SDS011;2331;48.806;9.140;2023-11-19T06:44:56;0.93;;;0.50;;
4636;SDS011;2331;48.806;9.140;2023-11-19T06:47:25;1.23;;;0.40;;
4636;SDS011;2331;48.806;9.140;2023-11-19T06:49:57;0.90;;;0.50;;
4636;SDS011;2331;48.806;9.140;2023-11-19T06:52:37;0.60;;;0.40;;
4636;SDS011;2331;48.806;9.140;2023-11-19T06:55:10;1.17;;;0.70;;
4636;SDS011;2331;48.806;9.140;2023-11-19T06:57:44;1.52;;;0.50;;
4636;SDS011;2331;48.806;9.140;2023-11-19T07:03:33;0.93;;;0.50;;
4636;SDS011;2331;48.806;9.140;2023-11-19T07:06:07;0.60;;;0.43;;
4636;SDS011;2331;48.806;9.140;2023-11-19T07:08:38;1.35;;;0.50;;
4636;SDS011;2331;48.806;9.140;2023-11-19T07:11:13;0.80;;;0.40;;
4636;SDS011;2331;48.806;9.140;2023-11-19T07:13:41;0.90;;;0.63;;
4636;SDS011;2331;48.806;9.140;2023-11-19T07:16:08;1.13;;;0.60;;
4636;SDS011;2331;48.806;9.140;2023-11-19T07:18:39;0.77;;;0.55;;
4636;SDS011;2331;48.806;9.140;2023-11-19T07:21:06;0.70;;;0.40;;
4636;SDS011;2331;48.806;9.140;2023-11-19T07:23:35;1.27;;;0.40;;
4636;SDS011;2331;48.806;9.140;2023-11-19T07:26:04;1.10;;;0.50;;
4636;SDS011;2331;48.806;9.140;2023-11-19T07:28:33;0.80;;;0.40;;
4636;SDS011;2331;48.806;9.140;2023-11-19T07:30:59;1.65;;;0.57;;
4636;SDS011;2331;48.806;9.140;2023-11-19T07:33:27;0.80;;;0.50;;
4636;SDS011;2331;48.806;9.140;2023-11-19T07:35:55;0.90;;;0.50;;
4636;SDS011;2331;48.806;9.140;2023-11-19T07:38:22;1.00;;;0.50;;
4636;SDS011;2331;48.806;9.140;2023-11-19T07:40:48;0.80;;;0.50;;
4636;SDS011;2331;48.806;9.140;2023-11-19T07:43:15;0.70;;;0.50;;
4636;SDS011;2331;48.806;9.140;2023-11-19T07:45:42;0.90;;;0.50;;
4636;SDS011;2331;48.806;9.140;2023-11-19T07:48:10;1.38;;;0.40;;
4636;SDS011;2331;48.806;9.140;2023-11-19T07:50:38;0.93;;;0.50;;
4636;SDS011;2331;48.806;9.140;2023-11-19T07:53:07;0.80;;;0.40;;
4636;SDS011;2331;48.806;9.140;2023-11-19T07:55:33;0.70;;;0.50;;
4636;SDS011;2331;48.806;9.140;2023-11-19T07:58:00;0.90;;;0.52;;
4636;SDS011;2331;48.806;9.140;2023-11-19T08:00:27;1.10;;;0.90;;
4636;SDS011;2331;48.806;9.140;2023-11-19T08:02:54;1.05;;;0.60;;
4636;SDS011;2331;48.806;9.140;2023-11-19T08:05:20;0.98;;;0.50;;
4636;SDS011;2331;48.806;9.140;2023-11-19T08:07:49;0.70;;;0.43;;
4636;SDS011;2331;48.806;9.140;2023-11-19T08:10:18;1.35;;;0.50;;
4636;SDS011;2331;48.806;9.140;2023-11-19T08:12:45;0.95;;;0.40;;
4636;SDS011;2331;48.806;9.140;2023-11-19T08:15:11;1.10;;;0.80;;
4636;SDS011;2331;48.806;9.140;2023-11-19T08:17:38;0.60;;;0.40;;
4636;SDS011;2331;48.806;9.140;2023-11-19T08:20:05;0.77;;;0.40;;
4636;SDS011;2331;48.806;9.140;2023-11-19T08:22:35;0.80;;;0.52;;
4636;SDS011;2331;48.806;9.140;2023-11-19T08:25:02;1.80;;;0.70;;
4636;SDS011;2331;48.806;9.140;2023-11-19T08:27:30;1.00;;;0.60;;
4636;SDS011;2331;48.806;9.140;2023-11-19T08:29:57;0.80;;;0.60;;
4636;SDS011;2331;48.806;9.140;2023-11-19T08:32:24;0.60;;;0.40;;
4636;SDS011;2331;48.806;9.140;2023-11-19T08:34:51;3.08;;;0.50;;
4636;SDS011;2331;48.806;9.140;2023-11-19T08:37:18;0.85;;;0.60;;
4636;SDS011;2331;48.806;9.140;2023-11-19T08:39:46;1.30;;;0.50;;
4636;SDS011;2331;48.806;9.140;2023-11-19T08:42:13;0.77;;;0.50;;
4636;SDS011;2331;48.806;9.140;2023-11-19T08:44:41;0.70;;;0.40;;
4636;SDS011;2331;48.806;9.140;2023-11-19T08:47:11;0.93;;;0.60;;
4636;SDS011;2331;48.806;9.140;2023-11-19T08:49:38;0.60;;;0.40;;
4636;SDS011;2331;48.806;9.140;2023-11-19T08:52:05;1.23;;;0.50;;
4636;SDS011;2331;48.806;9.140;2023-11-19T08:54:33;1.25;;;0.55;;
4636;SDS011;2331;48.806;9.140;2023-11-19T08:56:59;4.28;;;1.10;;
4636;SDS011;2331;48.806;9.140;2023-11-19T08:59:27;0.70;;;0.50;;
4636;SDS011;2331;48.806;9.140;2023-11-19T09:01:55;0.70;;;0.50;;
4636;SDS011;2331;48.806;9.140;2023-11-19T09:04:22;1.00;;;0.70;;
4636;SDS011;2331;48.806;9.140;2023-11-19T09:06:49;1.00;;;0.70;;
4636;SDS011;2331;48.806;9.140;2023-11-19T09:09:16;2.80;;;0.70;;
4636;SDS011;2331;48.806;9.140;2023-11-19T09:11:42;1.65;;;0.80;;
4636;SDS011;2331;48.806;9.140;2023-11-19T09:14:09;1.38;;;0.60;;
4636;SDS011;2331;48.806;9.140;2023-11-19T09:16:36;1.20;;;0.70;;
4636;SDS011;2331;48.806;9.140;2023-11-19T09:19:04;0.82;;;0.50;;
4636;SDS011;2331;48.806;9.140;2023-11-19T09:21:31;2.83;;;0.80;;
4636;SDS011;2331;48.806;9.140;2023-11-19T09:23:59;1.55;;;0.70;;
4636;SDS011;2331;48.806;9.140;2023-11-19T09:26:26;3.10;;;0.90;;
4636;SDS011;2331;48.806;9.140;2023-11-19T09:28:52;0.80;;;0.57;;
4636;SDS011;2331;48.806;9.140;2023-11-19T09:31:19;1.58;;;0.80;;
4636;SDS011;2331;48.806;9.140;2023-11-19T09:33:46;1.30;;;0.70;;
4636;SDS011;2331;48.806;9.140;2023-11-19T09:36:14;2.67;;;0.80;;
4636;SDS011;2331;48.806;9.140;2023-11-19T09:38:41;2.40;;;0.90;;
4636;SDS011;2331;48.806;9.140;2023-11-19T09:41:09;3.67;;;1.50;;
4636;SDS011;2331;48.806;9.140;2023-11-19T09:43:37;1.90;;;0.80;;
4636;SDS011;2331;48.806;9.140;2023-11-19T09:46:05;3.88;;;0.95;;
4636;SDS011;2331;48.806;9.140;2023-11-19T09:48:35;3.65;;;1.00;;
4636;SDS011;2331;48.806;9.140;2023-11-19T09:51:03;1.85;;;1.08;;
4636;SDS011;2331;48.806;9.140;2023-11-19T09:53:32;1.25;;;0.75;;
4636;SDS011;2331;48.806;9.140;2023-11-19T09:55:59;2.30;;;1.05;;
4636;SDS011;2331;48.806;9.140;2023-11-19T09:58:27;2.45;;;0.77;;
4636;SDS011;2331;48.806;9.140;2023-11-19T10:00:54;1.27;;;0.70;;
4636;SDS011;2331;48.806;9.140;2023-11-19T10:03:23;2.95;;;0.90;;
4636;SDS011;2331;48.806;9.140;2023-11-19T10:05:51;5.05;;;1.08;;
4636;SDS011;2331;48.806;9.140;2023-11-19T10:08:18;1.35;;;0.60;;
4636;SDS011;2331;48.806;9.140;2023-11-19T10:10:46;1.00;;;0.60;;
4636;SDS011;2331;48.806;9.140;2023-11-19T10:13:14;1.00;;;0.60;;
4636;SDS011;2331;48.806;9.140;2023-11-19T10:15:40;2.50;;;0.80;;
4636;SDS011;2331;48.806;9.140;2023-11-19T10:18:09;2.75;;;0.70;;
4636;SDS011;2331;48.806;9.140;2023-11-19T10:20:36;0.82;;;0.60;;
4636;SDS011;2331;48.806;9.140;2023-11-19T10:23:03;1.00;;;0.70;;
4636;SDS011;2331;48.806;9.140;2023-11-19T10:25:30;1.38;;;0.70;;
4636;SDS011;2331;48.806;9.140;2023-11-19T10:28:00;1.40;;;0.60;;
4636;SDS011;2331;48.806;9.140;2023-11-19T10:30:29;1.48;;;0.60;;
4636;SDS011;2331;48.806;9.140;2023-11-19T10:33:05;1.08;;;0.60;;
4636;SDS011;2331;48.806;9.140;2023-11-19T10:35:32;2.78;;;0.73;;
4636;SDS011;2331;48.806;9.140;2023-11-19T10:38:00;0.85;;;0.50;;
4636;SDS011;2331;48.806;9.140;2023-11-19T10:40:39;2.28;;;1.00;;
4636;SDS011;2331;48.806;9.140;2023-11-19T10:43:08;2.95;;;0.85;;
4636;SDS011;2331;48.806;9.140;2023-11-19T10:45:35;2.30;;;0.80;;
4636;SDS011;2331;48.806;9.140;2023-11-19T10:48:02;2.90;;;0.68;;
4636;SDS011;2331;48.806;9.140;2023-11-19T10:50:32;2.78;;;0.90;;
4636;SDS011;2331;48.806;9.140;2023-11-19T10:52:59;1.15;;;0.75;;
4636;SDS011;2331;48.806;9.140;2023-11-19T10:55:26;2.25;;;0.70;;
4636;SDS011;2331;48.806;9.140;2023-11-19T10:57:56;1.02;;;0.50;;
4636;SDS011;2331;48.806;9.140;2023-11-19T11:00:27;2.88;;;0.77;;
4636;SDS011;2331;48.806;9.140;2023-11-19T11:02:56;1.38;;;0.60;;
4636;SDS011;2331;48.806;9.140;2023-11-19T11:05:27;2.42;;;0.70;;
4636;SDS011;2331;48.806;9.140;2023-11-19T11:07:55;4.63;;;0.90;;
4636;SDS011;2331;48.806;9.140;2023-11-19T11:10:23;1.30;;;0.52;;
4636;SDS011;2331;48.806;9.140;2023-11-19T11:12:52;1.63;;;0.60;;
4636;SDS011;2331;48.806;9.140;2023-11-19T11:15:24;3.25;;;0.60;;
4636;SDS011;2331;48.806;9.140;2023-11-19T11:17:55;1.05;;;0.60;;
4636;SDS011;2331;48.806;9.140;2023-11-19T11:20:25;2.53;;;0.73;;
4636;SDS011;2331;48.806;9.140;2023-11-19T11:22:55;1.65;;;0.75;;
4636;SDS011;2331;48.806;9.140;2023-11-19T11:25:34;2.08;;;0.75;;
4636;SDS011;2331;48.806;9.140;2023-11-19T11:28:10;1.60;;;0.90;;
4636;SDS011;2331;48.806;9.140;2023-11-19T11:30:53;1.77;;;0.68;;
4636;SDS011;2331;48.806;9.140;2023-11-19T11:33:33;1.33;;;0.68;;
4636;SDS011;2331;48.806;9.140;2023-11-19T11:36:13;5.15;;;1.33;;
4636;SDS011;2331;48.806;9.140;2023-11-19T11:38:45;3.00;;;0.70;;
4636;SDS011;2331;48.806;9.140;2023-11-19T11:41:15;1.77;;;0.68;;
4636;SDS011;2331;48.806;9.140;2023-11-19T11:43:44;6.25;;;1.00;;
4636;SDS011;2331;48.806;9.140;2023-11-19T11:49:12;2.95;;;1.10;;
4636;SDS011;2331;48.806;9.140;2023-11-19T11:51:57;1.40;;;0.63;;
4636;SDS011;2331;48.806;9.140;2023-11-19T11:54:28;5.65;;;0.82;;
4636;SDS011;2331;48.806;9.140;2023-11-19T11:57:08;2.35;;;1.00;;
4636;SDS011;2331;48.806;9.140;2023-11-19T11:59:37;3.35;;;0.85;;
4636;SDS011;2331;48.806;9.140;2023-11-19T12:02:09;1.65;;;0.80;;
4636;SDS011;2331;48.806;9.140;2023-11-19T12:04:38;5.30;;;1.10;;
4636;SDS011;2331;48.806;9.140;2023-11-19T12:07:06;1.80;;;0.73;;
4636;SDS011;2331;48.806;9.140;2023-11-19T12:09:33;2.60;;;0.70;;
4636;SDS011;2331;48.806;9.140;2023-11-19T12:12:13;2.97;;;0.77;;
4636;SDS011;2331;48.806;9.140;2023-11-19T12:15:03;3.72;;;0.90;;
4636;SDS011;2331;48.806;9.140;2023-11-19T12:17:36;1.00;;;0.60;;
4636;SDS011;2331;48.806;9.140;2023-11-19T12:20:10;2.15;;;0.70;;
4636;SDS011;2331;48.806;9.140;2023-11-19T12:22:37;1.98;;;0.75;;
4636;SDS011;2331;48.806;9.140;2023-11-19T12:25:05;2.00;;;0.90;;
4636;SDS011;2331;48.806;9.140;2023-11-19T12:27:33;3.50;;;0.82;;
4636;SDS011;2331;48.806;9.140;2023-11-19T12:30:00;2.70;;;0.80;;
4636;SDS011;2331;48.806;9.140;2023-11-19T12:32:36;2.17;;;0.70;;
4636;SDS011;2331;48.806;9.140;2023-11-19T12:35:04;1.02;;;0.55;;
4636;SDS011;2331;48.806;9.140;2023-11-19T12:37:32;1.17;;;0.68;;
4636;SDS011;2331;48.806;9.140;2023-11-19T12:40:00;2.63;;;0.82;;
4636;SDS011;2331;48.806;9.140;2023-11-19T12:42:36;4.90;;;1.05;;
4636;SDS011;2331;48.806;9.140;2023-11-19T12:45:04;8.10;;;0.90;;
4636;SDS011;2331;48.806;9.140;2023-11-19T12:47:31;3.42;;;1.13;;
4636;SDS011;2331;48.806;9.140;2023-11-19T12:49:58;1.70;;;0.75;;
4636;SDS011;2331;48.806;9.140;2023-11-19T12:52:24;3.60;;;0.80;;
4636;SDS011;2331;48.806;9.140;2023-11-19T12:54:53;1.45;;;0.60;;
4636;SDS011;2331;48.806;9.140;2023-11-19T12:57:19;3.08;;;0.88;;
4636;SDS011;2331;48.806;9.140;2023-11-19T12:59:55;1.90;;;0.80;;
4636;SDS011;2331;48.806;9.140;2023-11-19T13:02:22;1.70;;;0.80;;
4636;SDS011;2331;48.806;9.140;2023-11-19T13:04:49;1.23;;;0.60;;
4636;SDS011;2331;48.806;9.140;2023-11-19T13:07:20;2.28;;;0.70;;
4636;SDS011;2331;48.806;9.140;2023-11-19T13:09:47;2.83;;;0.98;;
4636;SDS011;2331;48.806;9.140;2023-11-19T13:12:15;2.28;;;0.70;;
4636;SDS011;2331;48.806;9.140;2023-11-19T13:14:42;1.35;;;0.60;;
4636;SDS011;2331;48.806;9.140;2023-11-19T13:17:12;3.47;;;0.95;;
4636;SDS011;2331;48.806;9.140;2023-11-19T13:19:39;1.48;;;0.80;;
4636;SDS011;2331;48.806;9.140;2023-11-19T13:22:06;2.75;;;0.70;;
4636;SDS011;2331;48.806;9.140;2023-11-19T13:24:33;2.78;;;0.73;;
4636;SDS011;2331;48.806;9.140;2023-11-19T13:27:00;2.65;;;0.80;;
4636;SDS011;2331;48.806;9.140;2023-11-19T13:29:29;1.15;;;0.55;;
4636;SDS011;2331;48.806;9.140;2023-11-19T13:31:55;3.25;;;0.65;;
4636;SDS011;2331;48.806;9.140;2023-11-19T13:34:23;2.38;;;0.90;;
4636;SDS011;2331;48.806;9.140;2023-11-19T13:36:49;3.17;;;0.80;;
4636;SDS011;2331;48.806;9.140;2023-11-19T13:39:16;2.85;;;0.70;;
4636;SDS011;2331;48.806;9.140;2023-11-19T13:41:47;2.15;;;0.80;;
4636;SDS011;2331;48.806;9.140;2023-11-19T13:44:15;3.30;;;0.68;;
4636;SDS011;2331;48.806;9.140;2023-11-19T13:46:45;2.60;;;1.17;;
4636;SDS011;2331;48.806;9.140;2023-11-19T13:49:12;2.00;;;0.90;;
4636;SDS011;2331;48.806;9.140;2023-11-19T13:51:39;2.25;;;0.63;;
4636;SDS011;2331;48.806;9.140;2023-11-19T13:54:05;1.85;;;0.65;;
4636;SDS011;2331;48.806;9.140;2023-11-19T13:56:32;2.45;;;0.80;;
4636;SDS011;2331;48.806;9.140;2023-11-19T13:58:59;2.55;;;0.68;;
4636;SDS011;2331;48.806;9.140;2023-11-19T14:01:25;1.33;;;0.70;;
4636;SDS011;2331;48.806;9.140;2023-11-19T14:03:54;3.17;;;0.88;;
4636;SDS011;2331;48.806;9.140;2023-11-19T14:06:20;3.60;;;0.77;;
4636;SDS011;2331;48.806;9.140;2023-11-19T14:08:47;3.17;;;0.75;;
4636;SDS011;2331;48.806;9.140;2023-11-19T14:11:14;2.25;;;0.70;;
4636;SDS011;2331;48.806;9.140;2023-11-19T14:13:41;3.17;;;0.75;;
4636;SDS011;2331;48.806;9.140;2023-11-19T14:16:08;3.42;;;0.80;;
4636;SDS011;2331;48.806;9.140;2023-11-19T14:18:35;2.25;;;0.75;;
4636;SDS011;2331;48.806;9.140;2023-11-19T14:21:03;2.55;;;0.85;;
4636;SDS011;2331;48.806;9.140;2023-11-19T14:23:30;3.90;;;0.60;;
4636;SDS011;2331;48.806;9.140;2023-11-19T14:25:57;1.42;;;0.70;;
4636;SDS011;2331;48.806;9.140;2023-11-19T14:28:24;2.13;;;0.93;;
4636;SDS011;2331;48.806;9.140;2023-11-19T14:30:51;2.55;;;0.77;;
4636;SDS011;2331;48.806;9.140;2023-11-19T14:33:21;1.83;;;0.80;;
4636;SDS011;2331;48.806;9.140;2023-11-19T14:35:48;1.42;;;0.68;;
4636;SDS011;2331;48.806;9.140;2023-11-19T14:38:16;1.60;;;0.70;;
4636;SDS011;2331;48.806;9.140;2023-11-19T14:40:44;2.08;;;0.80;;
4636;SDS011;2331;48.806;9.140;2023-11-19T14:43:10;1.65;;;0.80;;
4636;SDS011;2331;48.806;9.140;2023-11-19T14:45:37;1.60;;;0.80;;
4636;SDS011;2331;48.806;9.140;2023-11-19T14:48:05;1.05;;;0.65;;
4636;SDS011;2331;48.806;9.140;2023-11-19T14:50:31;1.75;;;1.00;;
4636;SDS011;2331;48.806;9.140;2023-11-19T14:52:58;1.15;;;0.80;;
4636;SDS011;2331;48.806;9.140;2023-11-19T14:55:26;3.42;;;0.85;;
4636;SDS011;2331;48.806;9.140;2023-11-19T14:57:53;1.67;;;0.63;;
4636;SDS011;2331;48.806;9.140;2023-11-19T15:00:21;5.00;;;0.80;;
4636;SDS011;2331;48.806;9.140;2023-11-19T15:02:47;1.02;;;0.57;;
4636;SDS011;2331;48.806;9.140;2023-11-19T15:05:14;1.17;;;0.63;;
4636;SDS011;2331;48.806;9.140;2023-11-19T15:07:41;1.00;;;0.60;;
4636;SDS011;2331;48.806;9.140;2023-11-19T15:10:08;1.10;;;0.70;;
4636;SDS011;2331;48.806;9.140;2023-11-19T15:12:37;1.45;;;0.73;;
4636;SDS011;2331;48.806;9.140;2023-11-19T15:15:06;2.53;;;0.80;;
4636;SDS011;2331;48.806;9.140;2023-11-19T15:17:34;1.33;;;0.70;;
4636;SDS011;2331;48.806;9.140;2023-11-19T15:20:04;1.70;;;0.50;;
4636;SDS011;2331;48.806;9.140;2023-11-19T15:22:31;1.10;;;0.50;;
4636;SDS011;2331;48.806;9.140;2023-11-19T15:24:58;1.60;;;0.77;;
4636;SDS011;2331;48.806;9.140;2023-11-19T15:27:25;1.52;;;0.80;;